sensor_id;sensor_type;location;lat;lon;timestamp;P1;durP1;ratioP1;P2;durP2;ratioP2
9950;SDS011;24074;49.254;6.702;2023-10-08T00:00:43;7.47;;;5.93;;
9950;SDS011;24074;49.254;6.702;2023-10-08T00:03:15;7.83;;;6.60;;
9950;SDS011;24074;49.254;6.702;2023-10-08T00:05:42;8.23;;;6.90;;
9950;SDS011;24074;49.254;6.702;2023-10-08T00:08:08;7.20;;;6.50;;
9950;SDS011;24074;49.254;6.702;2023-10-08T00:10:38;7.13;;;5.80;;
9950;SDS011;24074;49.254;6.702;2023-10-08T00:13:08;9.10;;;6.10;;
9950;SDS011;24074;49.254;6.702;2023-10-08T00:15:38;6.87;;;6.17;;
9950;SDS011;24074;49.254;6.702;2023-10-08T00:18:14;7.40;;;6.57;;
9950;SDS011;24074;49.254;6.702;2023-10-08T00:20:40;8.93;;;6.07;;
9950;SDS011;24074;49.254;6.702;2023-10-08T00:23:45;8.77;;;5.80;;
9950;SDS011;24074;49.254;6.702;2023-10-08T00:26:17;8.77;;;6.57;;
9950;SDS011;24074;49.254;6.702;2023-10-08T00:28:49;8.53;;;6.73;;
9950;SDS011;24074;49.254;6.702;2023-10-08T00:31:16;7.40;;;6.67;;
9950;SDS011;24074;49.254;6.702;2023-10-08T00:33:42;6.93;;;6.07;;
9950;SDS011;24074;49.254;6.702;2023-10-08T00:36:09;6.83;;;6.13;;
9950;SDS011;24074;49.254;6.702;2023-10-08T00:38:45;8.70;;;5.90;;
9950;SDS011;24074;49.254;6.702;2023-10-08T00:41:15;6.93;;;5.10;;
9950;SDS011;24074;49.254;6.702;2023-10-08T00:43:44;7.97;;;5.77;;
9950;SDS011;24074;49.254;6.702;2023-10-08T00:46:12;6.57;;;5.63;;
9950;SDS011;24074;49.254;6.702;2023-10-08T00:48:49;7.47;;;5.40;;
9950;SDS011;24074;49.254;6.702;2023-10-08T00:51:19;6.87;;;5.27;;
9950;SDS011;24074;49.254;6.702;2023-10-08T00:53:46;6.30;;;5.00;;
9950;SDS011;24074;49.254;6.702;2023-10-08T00:56:14;6.97;;;5.00;;
9950;SDS011;24074;49.254;6.702;2023-10-08T00:58:44;7.90;;;5.47;;
9950;SDS011;24074;49.254;6.702;2023-10-08T01:01:14;6.50;;;4.77;;
9950;SDS011;24074;49.254;6.702;2023-10-08T01:03:41;6.63;;;5.60;;
9950;SDS011;24074;49.254;6.702;2023-10-08T01:06:09;8.70;;;5.77;;
9950;SDS011;24074;49.254;6.702;2023-10-08T01:08:36;10.43;;;5.50;;
9950;SDS011;24074;49.254;6.702;2023-10-08T01:11:21;6.53;;;5.70;;
9950;SDS011;24074;49.254;6.702;2023-10-08T01:13:57;7.33;;;5.40;;
9950;SDS011;24074;49.254;6.702;2023-10-08T01:16:24;8.83;;;5.60;;
9950;SDS011;24074;49.254;6.702;2023-10-08T01:18:52;9.77;;;5.70;;
9950;SDS011;24074;49.254;6.702;2023-10-08T01:21:19;8.83;;;6.23;;
9950;SDS011;24074;49.254;6.702;2023-10-08T01:24:05;8.53;;;5.93;;
9950;SDS011;24074;49.254;6.702;2023-10-08T01:26:32;7.47;;;6.10;;
9950;SDS011;24074;49.254;6.702;2023-10-08T01:28:59;7.47;;;5.30;;
9950;SDS011;24074;49.254;6.702;2023-10-08T01:31:32;7.90;;;6.17;;
9950;SDS011;24074;49.254;6.702;2023-10-08T01:33:58;7.60;;;5.70;;
9950;SDS011;24074;49.254;6.702;2023-10-08T01:36:26;6.63;;;5.53;;
9950;SDS011;24074;49.254;6.702;2023-10-08T01:38:53;6.87;;;5.77;;
9950;SDS011;24074;49.254;6.702;2023-10-08T01:41:19;8.17;;;5.03;;
9950;SDS011;24074;49.254;6.702;2023-10-08T01:43:50;8.43;;;5.80;;
9950;SDS011;24074;49.254;6.702;2023-10-08T01:46:17;6.47;;;5.10;;
9950;SDS011;24074;49.254;6.702;2023-10-08T01:48:46;8.40;;;5.27;;
9950;SDS011;24074;49.254;6.702;2023-10-08T01:51:14;5.97;;;4.67;;
9950;SDS011;24074;49.254;6.702;2023-10-08T01:53:49;6.87;;;5.40;;
9950;SDS011;24074;49.254;6.702;2023-10-08T01:56:19;8.90;;;5.20;;
9950;SDS011;24074;49.254;6.702;2023-10-08T01:58:44;7.07;;;5.33;;
9950;SDS011;24074;49.254;6.702;2023-10-08T02:01:11;6.20;;;4.90;;
9950;SDS011;24074;49.254;6.702;2023-10-08T02:03:37;6.40;;;5.27;;
9950;SDS011;24074;49.254;6.702;2023-10-08T02:06:03;7.20;;;5.20;;
9950;SDS011;24074;49.254;6.702;2023-10-08T02:08:31;6.77;;;5.03;;
9950;SDS011;24074;49.254;6.702;2023-10-08T02:10:57;7.17;;;5.37;;
9950;SDS011;24074;49.254;6.702;2023-10-08T02:13:27;6.60;;;4.80;;
9950;SDS011;24074;49.254;6.702;2023-10-08T02:15:56;8.07;;;5.40;;
9950;SDS011;24074;49.254;6.702;2023-10-08T02:18:23;6.03;;;5.20;;
9950;SDS011;24074;49.254;6.702;2023-10-08T02:20:49;7.50;;;5.00;;
9950;SDS011;24074;49.254;6.702;2023-10-08T02:23:15;7.00;;;4.73;;
9950;SDS011;24074;49.254;6.702;2023-10-08T02:25:43;7.90;;;4.97;;
9950;SDS011;24074;49.254;6.702;2023-10-08T02:28:09;7.37;;;5.07;;
9950;SDS011;24074;49.254;6.702;2023-10-08T02:30:37;6.10;;;4.67;;
9950;SDS011;24074;49.254;6.702;2023-10-08T02:33:06;7.43;;;5.23;;
9950;SDS011;24074;49.254;6.702;2023-10-08T02:35:44;8.67;;;4.93;;
9950;SDS011;24074;49.254;6.702;2023-10-08T02:38:11;6.00;;;4.67;;
9950;SDS011;24074;49.254;6.702;2023-10-08T02:40:41;5.03;;;4.53;;
9950;SDS011;24074;49.254;6.702;2023-10-08T02:43:11;7.93;;;4.93;;
9950;SDS011;24074;49.254;6.702;2023-10-08T02:45:39;8.17;;;5.13;;
9950;SDS011;24074;49.254;6.702;2023-10-08T02:48:06;8.97;;;5.30;;
9950;SDS011;24074;49.254;6.702;2023-10-08T02:50:41;8.53;;;4.97;;
9950;SDS011;24074;49.254;6.702;2023-10-08T02:53:07;7.07;;;5.00;;
9950;SDS011;24074;49.254;6.702;2023-10-08T02:55:39;6.17;;;4.50;;
9950;SDS011;24074;49.254;6.702;2023-10-08T02:58:12;5.60;;;4.20;;
9950;SDS011;24074;49.254;6.702;2023-10-08T03:00:44;6.57;;;4.80;;
9950;SDS011;24074;49.254;6.702;2023-10-08T03:03:12;5.03;;;4.43;;
9950;SDS011;24074;49.254;6.702;2023-10-08T03:05:44;6.57;;;4.40;;
9950;SDS011;24074;49.254;6.702;2023-10-08T03:08:11;4.80;;;4.30;;
9950;SDS011;24074;49.254;6.702;2023-10-08T03:10:38;8.00;;;4.73;;
9950;SDS011;24074;49.254;6.702;2023-10-08T03:13:04;4.20;;;3.80;;
9950;SDS011;24074;49.254;6.702;2023-10-08T03:15:31;4.63;;;4.03;;
9950;SDS011;24074;49.254;6.702;2023-10-08T03:18:03;7.03;;;4.67;;
9950;SDS011;24074;49.254;6.702;2023-10-08T03:20:38;4.47;;;3.80;;
9950;SDS011;24074;49.254;6.702;2023-10-08T03:23:07;5.33;;;4.13;;
9950;SDS011;24074;49.254;6.702;2023-10-08T03:25:57;7.07;;;4.77;;
9950;SDS011;24074;49.254;6.702;2023-10-08T03:28:27;6.70;;;4.43;;
9950;SDS011;24074;49.254;6.702;2023-10-08T03:30:54;6.00;;;4.57;;
9950;SDS011;24074;49.254;6.702;2023-10-08T03:33:42;4.97;;;3.90;;
9950;SDS011;24074;49.254;6.702;2023-10-08T03:36:14;5.57;;;4.53;;
9950;SDS011;24074;49.254;6.702;2023-10-08T03:38:46;5.03;;;4.37;;
9950;SDS011;24074;49.254;6.702;2023-10-08T03:41:22;7.30;;;4.07;;
9950;SDS011;24074;49.254;6.702;2023-10-08T03:43:57;5.30;;;4.60;;
9950;SDS011;24074;49.254;6.702;2023-10-08T03:46:29;8.03;;;4.60;;
9950;SDS011;24074;49.254;6.702;2023-10-08T03:48:56;7.03;;;4.57;;
9950;SDS011;24074;49.254;6.702;2023-10-08T03:51:29;5.67;;;4.50;;
9950;SDS011;24074;49.254;6.702;2023-10-08T03:54:00;4.83;;;4.10;;
9950;SDS011;24074;49.254;6.702;2023-10-08T03:56:41;5.13;;;4.43;;
9950;SDS011;24074;49.254;6.702;2023-10-08T03:59:16;7.80;;;4.30;;
9950;SDS011;24074;49.254;6.702;2023-10-08T04:01:55;6.93;;;4.57;;
9950;SDS011;24074;49.254;6.702;2023-10-08T04:04:24;7.27;;;4.27;;
9950;SDS011;24074;49.254;6.702;2023-10-08T04:07:10;7.67;;;4.27;;
9950;SDS011;24074;49.254;6.702;2023-10-08T04:09:58;6.50;;;4.37;;
9950;SDS011;24074;49.254;6.702;2023-10-08T04:12:47;6.57;;;4.50;;
9950;SDS011;24074;49.254;6.702;2023-10-08T04:15:16;5.77;;;4.07;;
9950;SDS011;24074;49.254;6.702;2023-10-08T04:17:43;5.27;;;3.90;;
9950;SDS011;24074;49.254;6.702;2023-10-08T04:20:12;6.83;;;4.60;;
9950;SDS011;24074;49.254;6.702;2023-10-08T04:23:01;5.77;;;4.50;;
9950;SDS011;24074;49.254;6.702;2023-10-08T04:25:29;5.60;;;3.90;;
9950;SDS011;24074;49.254;6.702;2023-10-08T04:28:00;6.70;;;4.67;;
9950;SDS011;24074;49.254;6.702;2023-10-08T04:30:35;6.20;;;4.70;;
9950;SDS011;24074;49.254;6.702;2023-10-08T04:33:04;4.83;;;4.03;;
9950;SDS011;24074;49.254;6.702;2023-10-08T04:35:38;6.60;;;4.50;;
9950;SDS011;24074;49.254;6.702;2023-10-08T04:38:13;6.23;;;4.70;;
9950;SDS011;24074;49.254;6.702;2023-10-08T04:40:42;6.47;;;4.30;;
9950;SDS011;24074;49.254;6.702;2023-10-08T04:43:12;8.23;;;4.07;;
9950;SDS011;24074;49.254;6.702;2023-10-08T04:45:40;5.93;;;4.50;;
9950;SDS011;24074;49.254;6.702;2023-10-08T04:48:06;4.77;;;4.27;;
9950;SDS011;24074;49.254;6.702;2023-10-08T04:50:34;8.60;;;4.50;;
9950;SDS011;24074;49.254;6.702;2023-10-08T04:53:01;4.70;;;4.07;;
9950;SDS011;24074;49.254;6.702;2023-10-08T04:55:32;4.53;;;3.83;;
9950;SDS011;24074;49.254;6.702;2023-10-08T04:58:06;5.73;;;3.90;;
9950;SDS011;24074;49.254;6.702;2023-10-08T05:00:44;4.30;;;3.90;;
9950;SDS011;24074;49.254;6.702;2023-10-08T05:03:19;5.43;;;4.10;;
9950;SDS011;24074;49.254;6.702;2023-10-08T05:05:47;4.40;;;3.80;;
9950;SDS011;24074;49.254;6.702;2023-10-08T05:08:22;7.97;;;4.90;;
9950;SDS011;24074;49.254;6.702;2023-10-08T05:10:57;8.67;;;5.03;;
9950;SDS011;24074;49.254;6.702;2023-10-08T05:13:39;9.30;;;5.07;;
9950;SDS011;24074;49.254;6.702;2023-10-08T05:16:20;5.53;;;4.20;;
9950;SDS011;24074;49.254;6.702;2023-10-08T05:19:08;5.53;;;4.27;;
9950;SDS011;24074;49.254;6.702;2023-10-08T05:21:53;4.80;;;4.30;;
9950;SDS011;24074;49.254;6.702;2023-10-08T05:24:31;6.17;;;4.07;;
9950;SDS011;24074;49.254;6.702;2023-10-08T05:27:03;4.70;;;4.20;;
9950;SDS011;24074;49.254;6.702;2023-10-08T05:29:48;5.90;;;4.30;;
9950;SDS011;24074;49.254;6.702;2023-10-08T05:32:32;6.33;;;4.60;;
9950;SDS011;24074;49.254;6.702;2023-10-08T05:35:11;5.33;;;4.77;;
9950;SDS011;24074;49.254;6.702;2023-10-08T05:37:57;4.67;;;4.27;;
9950;SDS011;24074;49.254;6.702;2023-10-08T05:40:38;6.23;;;4.27;;
9950;SDS011;24074;49.254;6.702;2023-10-08T05:43:22;5.93;;;4.80;;
9950;SDS011;24074;49.254;6.702;2023-10-08T05:46:12;6.43;;;3.87;;
9950;SDS011;24074;49.254;6.702;2023-10-08T05:48:51;6.17;;;4.10;;
9950;SDS011;24074;49.254;6.702;2023-10-08T05:51:33;7.80;;;4.50;;
9950;SDS011;24074;49.254;6.702;2023-10-08T05:54:12;6.40;;;4.00;;
9950;SDS011;24074;49.254;6.702;2023-10-08T05:59:32;5.00;;;4.40;;
9950;SDS011;24074;49.254;6.702;2023-10-08T06:02:06;8.63;;;5.00;;
9950;SDS011;24074;49.254;6.702;2023-10-08T06:04:51;6.17;;;4.20;;
9950;SDS011;24074;49.254;6.702;2023-10-08T06:07:49;7.20;;;4.80;;
9950;SDS011;24074;49.254;6.702;2023-10-08T06:10:22;6.33;;;4.10;;
9950;SDS011;24074;49.254;6.702;2023-10-08T06:12:51;7.27;;;4.80;;
9950;SDS011;24074;49.254;6.702;2023-10-08T06:15:26;5.60;;;4.30;;
9950;SDS011;24074;49.254;6.702;2023-10-08T06:18:09;7.80;;;4.17;;
9950;SDS011;24074;49.254;6.702;2023-10-08T06:20:36;4.90;;;3.93;;
9950;SDS011;24074;49.254;6.702;2023-10-08T06:23:04;6.60;;;4.23;;
9950;SDS011;24074;49.254;6.702;2023-10-08T06:25:32;5.90;;;3.77;;
9950;SDS011;24074;49.254;6.702;2023-10-08T06:27:58;6.63;;;3.70;;
9950;SDS011;24074;49.254;6.702;2023-10-08T06:30:24;6.80;;;4.53;;
9950;SDS011;24074;49.254;6.702;2023-10-08T06:32:54;4.50;;;4.10;;
9950;SDS011;24074;49.254;6.702;2023-10-08T06:35:21;6.13;;;3.90;;
9950;SDS011;24074;49.254;6.702;2023-10-08T06:37:52;5.73;;;3.93;;
9950;SDS011;24074;49.254;6.702;2023-10-08T06:40:20;4.67;;;3.80;;
9950;SDS011;24074;49.254;6.702;2023-10-08T06:43:01;5.77;;;4.33;;
9950;SDS011;24074;49.254;6.702;2023-10-08T06:45:36;5.27;;;3.73;;
9950;SDS011;24074;49.254;6.702;2023-10-08T06:48:04;5.20;;;4.20;;
9950;SDS011;24074;49.254;6.702;2023-10-08T06:50:31;5.10;;;4.10;;
9950;SDS011;24074;49.254;6.702;2023-10-08T06:53:00;4.20;;;3.60;;
9950;SDS011;24074;49.254;6.702;2023-10-08T06:55:31;6.03;;;4.20;;
9950;SDS011;24074;49.254;6.702;2023-10-08T06:57:59;4.23;;;3.83;;
9950;SDS011;24074;49.254;6.702;2023-10-08T07:00:25;6.10;;;4.10;;
9950;SDS011;24074;49.254;6.702;2023-10-08T07:03:05;4.90;;;3.93;;
9950;SDS011;24074;49.254;6.702;2023-10-08T07:05:40;6.00;;;4.80;;
9950;SDS011;24074;49.254;6.702;2023-10-08T07:08:06;4.57;;;3.90;;
9950;SDS011;24074;49.254;6.702;2023-10-08T07:10:32;5.50;;;4.13;;
9950;SDS011;24074;49.254;6.702;2023-10-08T07:13:01;5.40;;;4.23;;
9950;SDS011;24074;49.254;6.702;2023-10-08T07:15:28;5.33;;;3.63;;
9950;SDS011;24074;49.254;6.702;2023-10-08T07:17:55;4.60;;;3.67;;
9950;SDS011;24074;49.254;6.702;2023-10-08T07:20:21;3.97;;;3.57;;
9950;SDS011;24074;49.254;6.702;2023-10-08T07:22:47;6.50;;;3.30;;
9950;SDS011;24074;49.254;6.702;2023-10-08T07:25:21;5.63;;;3.80;;
9950;SDS011;24074;49.254;6.702;2023-10-08T07:27:47;4.73;;;3.53;;
9950;SDS011;24074;49.254;6.702;2023-10-08T07:30:14;8.17;;;3.87;;
9950;SDS011;24074;49.254;6.702;2023-10-08T07:32:51;4.50;;;3.57;;
9950;SDS011;24074;49.254;6.702;2023-10-08T07:35:20;6.43;;;3.63;;
9950;SDS011;24074;49.254;6.702;2023-10-08T07:37:45;5.33;;;3.70;;
9950;SDS011;24074;49.254;6.702;2023-10-08T07:40:15;5.00;;;3.80;;
9950;SDS011;24074;49.254;6.702;2023-10-08T07:42:41;4.93;;;3.60;;
9950;SDS011;24074;49.254;6.702;2023-10-08T07:45:08;5.37;;;3.93;;
9950;SDS011;24074;49.254;6.702;2023-10-08T07:47:34;6.10;;;4.23;;
9950;SDS011;24074;49.254;6.702;2023-10-08T07:50:00;5.63;;;3.37;;
9950;SDS011;24074;49.254;6.702;2023-10-08T07:52:26;4.13;;;3.50;;
9950;SDS011;24074;49.254;6.702;2023-10-08T07:54:51;4.72;;;3.80;;
9950;SDS011;24074;49.254;6.702;2023-10-08T07:57:18;4.40;;;3.45;;
9950;SDS011;24074;49.254;6.702;2023-10-08T07:59:45;7.65;;;3.55;;
9950;SDS011;24074;49.254;6.702;2023-10-08T08:02:19;6.80;;;3.55;;
9950;SDS011;24074;49.254;6.702;2023-10-08T08:04:50;4.32;;;3.70;;
9950;SDS011;24074;49.254;6.702;2023-10-08T08:07:17;4.68;;;3.47;;
9950;SDS011;24074;49.254;6.702;2023-10-08T08:09:44;5.65;;;3.95;;
9950;SDS011;24074;49.254;6.702;2023-10-08T08:12:17;5.30;;;3.40;;
9950;SDS011;24074;49.254;6.702;2023-10-08T08:14:44;5.03;;;3.42;;
9950;SDS011;24074;49.254;6.702;2023-10-08T08:17:10;5.35;;;3.72;;
9950;SDS011;24074;49.254;6.702;2023-10-08T08:19:41;4.95;;;3.80;;
9950;SDS011;24074;49.254;6.702;2023-10-08T08:22:10;6.25;;;4.28;;
9950;SDS011;24074;49.254;6.702;2023-10-08T08:24:40;6.30;;;3.88;;
9950;SDS011;24074;49.254;6.702;2023-10-08T08:27:10;7.05;;;4.05;;
9950;SDS011;24074;49.254;6.702;2023-10-08T08:29:56;6.10;;;3.67;;
9950;SDS011;24074;49.254;6.702;2023-10-08T08:32:26;6.40;;;4.03;;
9950;SDS011;24074;49.254;6.702;2023-10-08T08:34:53;5.28;;;3.83;;
9950;SDS011;24074;49.254;6.702;2023-10-08T08:37:19;5.65;;;3.95;;
9950;SDS011;24074;49.254;6.702;2023-10-08T08:39:51;4.95;;;3.70;;
9950;SDS011;24074;49.254;6.702;2023-10-08T08:42:18;7.38;;;4.15;;
9950;SDS011;24074;49.254;6.702;2023-10-08T08:44:48;5.20;;;3.80;;
9950;SDS011;24074;49.254;6.702;2023-10-08T08:47:16;7.63;;;4.97;;
9950;SDS011;24074;49.254;6.702;2023-10-08T08:49:45;7.13;;;4.05;;
9950;SDS011;24074;49.254;6.702;2023-10-08T08:52:12;6.38;;;3.80;;
9950;SDS011;24074;49.254;6.702;2023-10-08T08:54:39;4.78;;;3.75;;
9950;SDS011;24074;49.254;6.702;2023-10-08T08:57:07;4.07;;;3.50;;
9950;SDS011;24074;49.254;6.702;2023-10-08T08:59:38;5.88;;;3.80;;
9950;SDS011;24074;49.254;6.702;2023-10-08T09:02:09;5.30;;;3.70;;
9950;SDS011;24074;49.254;6.702;2023-10-08T09:04:39;4.75;;;3.95;;
9950;SDS011;24074;49.254;6.702;2023-10-08T09:07:04;7.80;;;4.10;;
9950;SDS011;24074;49.254;6.702;2023-10-08T09:09:31;5.28;;;3.67;;
9950;SDS011;24074;49.254;6.702;2023-10-08T09:12:02;5.80;;;4.00;;
9950;SDS011;24074;49.254;6.702;2023-10-08T09:14:30;4.93;;;4.00;;
9950;SDS011;24074;49.254;6.702;2023-10-08T09:17:00;5.70;;;3.72;;
9950;SDS011;24074;49.254;6.702;2023-10-08T09:19:26;5.43;;;3.60;;
9950;SDS011;24074;49.254;6.702;2023-10-08T09:24:37;6.55;;;3.83;;
9950;SDS011;24074;49.254;6.702;2023-10-08T09:27:04;5.72;;;3.97;;
9950;SDS011;24074;49.254;6.702;2023-10-08T09:29:34;6.18;;;3.75;;
9950;SDS011;24074;49.254;6.702;2023-10-08T09:32:05;5.25;;;3.80;;
9950;SDS011;24074;49.254;6.702;2023-10-08T09:34:32;5.97;;;4.13;;
9950;SDS011;24074;49.254;6.702;2023-10-08T09:36:59;5.53;;;3.58;;
9950;SDS011;24074;49.254;6.702;2023-10-08T09:39:25;5.63;;;3.75;;
9950;SDS011;24074;49.254;6.702;2023-10-08T09:41:59;6.32;;;3.42;;
9950;SDS011;24074;49.254;6.702;2023-10-08T09:44:36;4.97;;;3.67;;
9950;SDS011;24074;49.254;6.702;2023-10-08T09:47:06;5.53;;;3.80;;
9950;SDS011;24074;49.254;6.702;2023-10-08T09:49:41;5.22;;;3.92;;
9950;SDS011;24074;49.254;6.702;2023-10-08T09:52:16;6.05;;;3.88;;
9950;SDS011;24074;49.254;6.702;2023-10-08T09:54:48;5.50;;;4.05;;
9950;SDS011;24074;49.254;6.702;2023-10-08T09:57:17;7.50;;;4.00;;
9950;SDS011;24074;49.254;6.702;2023-10-08T09:59:43;4.35;;;3.40;;
9950;SDS011;24074;49.254;6.702;2023-10-08T10:02:10;5.70;;;3.75;;
9950;SDS011;24074;49.254;6.702;2023-10-08T10:04:37;8.55;;;3.85;;
9950;SDS011;24074;49.254;6.702;2023-10-08T10:07:12;6.20;;;3.65;;
9950;SDS011;24074;49.254;6.702;2023-10-08T10:09:44;5.25;;;3.80;;
9950;SDS011;24074;49.254;6.702;2023-10-08T10:12:17;6.70;;;3.42;;
9950;SDS011;24074;49.254;6.702;2023-10-08T10:14:51;9.00;;;4.35;;
9950;SDS011;24074;49.254;6.702;2023-10-08T10:17:25;6.03;;;3.78;;
9950;SDS011;24074;49.254;6.702;2023-10-08T10:19:53;5.40;;;3.95;;
9950;SDS011;24074;49.254;6.702;2023-10-08T10:22:26;6.60;;;3.95;;
9950;SDS011;24074;49.254;6.702;2023-10-08T10:24:54;5.00;;;3.70;;
9950;SDS011;24074;49.254;6.702;2023-10-08T10:27:21;4.68;;;3.58;;
9950;SDS011;24074;49.254;6.702;2023-10-08T10:29:47;4.82;;;3.38;;
9950;SDS011;24074;49.254;6.702;2023-10-08T10:32:13;6.60;;;3.70;;
9950;SDS011;24074;49.254;6.702;2023-10-08T10:34:40;6.53;;;3.75;;
9950;SDS011;24074;49.254;6.702;2023-10-08T10:37:12;6.70;;;3.72;;
9950;SDS011;24074;49.254;6.702;2023-10-08T10:39:54;4.82;;;3.53;;
9950;SDS011;24074;49.254;6.702;2023-10-08T10:42:22;5.75;;;3.53;;
9950;SDS011;24074;49.254;6.702;2023-10-08T10:44:48;8.75;;;3.75;;
9950;SDS011;24074;49.254;6.702;2023-10-08T10:47:15;7.70;;;3.75;;
9950;SDS011;24074;49.254;6.702;2023-10-08T10:49:45;4.53;;;3.58;;
9950;SDS011;24074;49.254;6.702;2023-10-08T10:52:30;3.97;;;3.25;;
9950;SDS011;24074;49.254;6.702;2023-10-08T10:55:09;6.60;;;3.75;;
9950;SDS011;24074;49.254;6.702;2023-10-08T10:57:40;6.80;;;3.60;;
9950;SDS011;24074;49.254;6.702;2023-10-08T11:00:25;5.43;;;3.60;;
9950;SDS011;24074;49.254;6.702;2023-10-08T11:02:58;5.68;;;3.60;;
9950;SDS011;24074;49.254;6.702;2023-10-08T11:05:43;5.47;;;4.03;;
9950;SDS011;24074;49.254;6.702;2023-10-08T11:08:16;5.78;;;4.20;;
9950;SDS011;24074;49.254;6.702;2023-10-08T11:10:48;7.88;;;3.72;;
9950;SDS011;24074;49.254;6.702;2023-10-08T11:13:20;6.97;;;4.13;;
9950;SDS011;24074;49.254;6.702;2023-10-08T11:15:53;5.88;;;3.33;;
9950;SDS011;24074;49.254;6.702;2023-10-08T11:18:20;5.95;;;3.80;;
9950;SDS011;24074;49.254;6.702;2023-10-08T11:20:52;8.05;;;3.83;;
9950;SDS011;24074;49.254;6.702;2023-10-08T11:23:34;7.07;;;4.25;;
9950;SDS011;24074;49.254;6.702;2023-10-08T11:26:04;8.27;;;3.72;;
9950;SDS011;24074;49.254;6.702;2023-10-08T11:28:31;6.45;;;3.78;;
9950;SDS011;24074;49.254;6.702;2023-10-08T11:31:01;5.68;;;3.70;;
9950;SDS011;24074;49.254;6.702;2023-10-08T11:33:39;7.47;;;3.83;;
9950;SDS011;24074;49.254;6.702;2023-10-08T11:36:07;6.00;;;3.42;;
9950;SDS011;24074;49.254;6.702;2023-10-08T11:38:52;6.70;;;3.42;;
9950;SDS011;24074;49.254;6.702;2023-10-08T11:41:19;6.55;;;4.05;;
9950;SDS011;24074;49.254;6.702;2023-10-08T11:43:51;7.15;;;4.00;;
9950;SDS011;24074;49.254;6.702;2023-10-08T11:46:24;5.75;;;3.72;;
9950;SDS011;24074;49.254;6.702;2023-10-08T11:49:03;5.45;;;3.60;;
9950;SDS011;24074;49.254;6.702;2023-10-08T11:51:35;8.68;;;3.92;;
9950;SDS011;24074;49.254;6.702;2023-10-08T11:54:01;7.50;;;3.80;;
9950;SDS011;24074;49.254;6.702;2023-10-08T11:56:30;6.85;;;4.10;;
9950;SDS011;24074;49.254;6.702;2023-10-08T11:58:58;5.10;;;3.80;;
9950;SDS011;24074;49.254;6.702;2023-10-08T12:01:26;6.15;;;4.00;;
9950;SDS011;24074;49.254;6.702;2023-10-08T12:03:52;6.28;;;3.90;;
9950;SDS011;24074;49.254;6.702;2023-10-08T12:06:24;7.00;;;4.13;;
9950;SDS011;24074;49.254;6.702;2023-10-08T12:08:50;8.93;;;4.55;;
9950;SDS011;24074;49.254;6.702;2023-10-08T12:11:18;7.65;;;4.03;;
9950;SDS011;24074;49.254;6.702;2023-10-08T12:13:47;7.25;;;3.95;;
9950;SDS011;24074;49.254;6.702;2023-10-08T12:16:15;5.38;;;4.20;;
9950;SDS011;24074;49.254;6.702;2023-10-08T12:18:46;8.75;;;3.92;;
9950;SDS011;24074;49.254;6.702;2023-10-08T12:21:20;7.97;;;4.35;;
9950;SDS011;24074;49.254;6.702;2023-10-08T12:23:46;7.85;;;4.22;;
9950;SDS011;24074;49.254;6.702;2023-10-08T12:26:14;8.98;;;4.05;;
9950;SDS011;24074;49.254;6.702;2023-10-08T12:28:46;7.20;;;4.15;;
9950;SDS011;24074;49.254;6.702;2023-10-08T12:31:16;6.97;;;4.03;;
9950;SDS011;24074;49.254;6.702;2023-10-08T12:33:42;5.18;;;3.67;;
9950;SDS011;24074;49.254;6.702;2023-10-08T12:36:11;7.10;;;4.45;;
9950;SDS011;24074;49.254;6.702;2023-10-08T12:41:55;10.80;;;4.25;;
9950;SDS011;24074;49.254;6.702;2023-10-08T12:44:28;7.00;;;4.15;;
9950;SDS011;24074;49.254;6.702;2023-10-08T12:46:54;8.23;;;4.22;;
9950;SDS011;24074;49.254;6.702;2023-10-08T12:49:23;8.63;;;4.03;;
9950;SDS011;24074;49.254;6.702;2023-10-08T12:51:50;8.30;;;4.82;;
9950;SDS011;24074;49.254;6.702;2023-10-08T12:54:17;8.63;;;4.20;;
9950;SDS011;24074;49.254;6.702;2023-10-08T12:56:47;11.18;;;4.20;;
9950;SDS011;24074;49.254;6.702;2023-10-08T12:59:14;7.72;;;4.32;;
9950;SDS011;24074;49.254;6.702;2023-10-08T13:01:45;10.48;;;4.75;;
9950;SDS011;24074;49.254;6.702;2023-10-08T13:04:19;8.05;;;4.35;;
9950;SDS011;24074;49.254;6.702;2023-10-08T13:06:57;9.13;;;4.10;;
9950;SDS011;24074;49.254;6.702;2023-10-08T13:09:26;7.35;;;4.30;;
9950;SDS011;24074;49.254;6.702;2023-10-08T13:11:51;7.35;;;4.13;;
9950;SDS011;24074;49.254;6.702;2023-10-08T13:14:17;7.22;;;4.82;;
9950;SDS011;24074;49.254;6.702;2023-10-08T13:16:43;9.07;;;4.28;;
9950;SDS011;24074;49.254;6.702;2023-10-08T13:19:10;9.98;;;4.80;;
9950;SDS011;24074;49.254;6.702;2023-10-08T13:21:36;8.00;;;4.28;;
9950;SDS011;24074;49.254;6.702;2023-10-08T13:24:02;6.93;;;4.32;;
9950;SDS011;24074;49.254;6.702;2023-10-08T13:26:30;12.57;;;4.38;;
9950;SDS011;24074;49.254;6.702;2023-10-08T13:28:56;11.20;;;4.85;;
9950;SDS011;24074;49.254;6.702;2023-10-08T13:31:26;7.28;;;4.07;;
9950;SDS011;24074;49.254;6.702;2023-10-08T13:33:52;6.63;;;3.97;;
9950;SDS011;24074;49.254;6.702;2023-10-08T13:36:21;7.93;;;4.78;;
9950;SDS011;24074;49.254;6.702;2023-10-08T13:38:47;7.63;;;4.15;;
9950;SDS011;24074;49.254;6.702;2023-10-08T13:41:12;9.70;;;4.53;;
9950;SDS011;24074;49.254;6.702;2023-10-08T13:43:43;7.45;;;4.30;;
9950;SDS011;24074;49.254;6.702;2023-10-08T13:46:14;6.93;;;4.10;;
9950;SDS011;24074;49.254;6.702;2023-10-08T13:48:42;12.32;;;4.70;;
9950;SDS011;24074;49.254;6.702;2023-10-08T13:51:13;11.32;;;4.63;;
9950;SDS011;24074;49.254;6.702;2023-10-08T13:53:49;7.93;;;3.95;;
9950;SDS011;24074;49.254;6.702;2023-10-08T13:56:17;9.23;;;4.35;;
9950;SDS011;24074;49.254;6.702;2023-10-08T13:58:45;9.20;;;4.30;;
9950;SDS011;24074;49.254;6.702;2023-10-08T14:01:14;7.15;;;4.47;;
9950;SDS011;24074;49.254;6.702;2023-10-08T14:03:49;11.43;;;4.47;;
9950;SDS011;24074;49.254;6.702;2023-10-08T14:06:18;11.00;;;4.55;;
9950;SDS011;24074;49.254;6.702;2023-10-08T14:08:45;8.00;;;3.80;;
9950;SDS011;24074;49.254;6.702;2023-10-08T14:11:19;10.80;;;4.35;;
9950;SDS011;24074;49.254;6.702;2023-10-08T14:13:49;8.55;;;4.63;;
9950;SDS011;24074;49.254;6.702;2023-10-08T14:16:16;10.35;;;4.40;;
9950;SDS011;24074;49.254;6.702;2023-10-08T14:18:43;7.10;;;4.35;;
9950;SDS011;24074;49.254;6.702;2023-10-08T14:21:15;9.05;;;4.57;;
9950;SDS011;24074;49.254;6.702;2023-10-08T14:23:43;11.73;;;4.60;;
9950;SDS011;24074;49.254;6.702;2023-10-08T14:26:09;10.95;;;4.40;;
9950;SDS011;24074;49.254;6.702;2023-10-08T14:28:36;8.85;;;4.32;;
9950;SDS011;24074;49.254;6.702;2023-10-08T14:31:28;10.27;;;4.55;;
9950;SDS011;24074;49.254;6.702;2023-10-08T14:33:53;7.82;;;4.10;;
9950;SDS011;24074;49.254;6.702;2023-10-08T14:36:32;7.68;;;4.28;;
9950;SDS011;24074;49.254;6.702;2023-10-08T14:39:16;7.95;;;3.95;;
9950;SDS011;24074;49.254;6.702;2023-10-08T14:42:01;8.25;;;4.18;;
9950;SDS011;24074;49.254;6.702;2023-10-08T14:44:45;8.07;;;4.32;;
9950;SDS011;24074;49.254;6.702;2023-10-08T14:47:11;5.85;;;3.78;;
9950;SDS011;24074;49.254;6.702;2023-10-08T14:49:38;10.10;;;4.53;;
9950;SDS011;24074;49.254;6.702;2023-10-08T14:52:03;11.80;;;4.60;;
9950;SDS011;24074;49.254;6.702;2023-10-08T14:54:30;9.48;;;4.50;;
9950;SDS011;24074;49.254;6.702;2023-10-08T14:56:56;11.63;;;4.43;;
9950;SDS011;24074;49.254;6.702;2023-10-08T14:59:22;8.02;;;4.47;;
9950;SDS011;24074;49.254;6.702;2023-10-08T15:01:48;10.85;;;4.60;;
9950;SDS011;24074;49.254;6.702;2023-10-08T15:04:15;7.72;;;4.40;;
9950;SDS011;24074;49.254;6.702;2023-10-08T15:06:41;8.15;;;4.45;;
9950;SDS011;24074;49.254;6.702;2023-10-08T15:09:08;9.80;;;4.85;;
9950;SDS011;24074;49.254;6.702;2023-10-08T15:11:34;10.15;;;4.47;;
9950;SDS011;24074;49.254;6.702;2023-10-08T15:14:01;8.82;;;4.35;;
9950;SDS011;24074;49.254;6.702;2023-10-08T15:16:34;9.98;;;4.47;;
9950;SDS011;24074;49.254;6.702;2023-10-08T15:19:01;12.00;;;4.72;;
9950;SDS011;24074;49.254;6.702;2023-10-08T15:21:29;7.57;;;4.38;;
9950;SDS011;24074;49.254;6.702;2023-10-08T15:23:57;6.15;;;4.00;;
9950;SDS011;24074;49.254;6.702;2023-10-08T15:26:23;12.55;;;4.78;;
9950;SDS011;24074;49.254;6.702;2023-10-08T15:28:49;10.38;;;4.30;;
9950;SDS011;24074;49.254;6.702;2023-10-08T15:31:14;11.25;;;5.15;;